createdAt,value
2019-01-03T00:00:58.681Z,8.97
2019-01-03T00:03:45.955Z,8.57
2019-01-03T00:06:32.952Z,11.37
2019-01-03T00:09:20.031Z,8.83
2019-01-03T00:12:14.262Z,8.13
2019-01-03T00:15:02.667Z,11.17
2019-01-03T00:18:02.701Z,7.43
2019-01-03T00:20:51.160Z,14.10
2019-01-03T00:23:39.648Z,11.07
2019-01-03T00:26:37.478Z,8.20
2019-01-03T00:29:28.666Z,8.87
2019-01-03T00:32:29.038Z,12.03
2019-01-03T00:35:16.045Z,8.00
2019-01-03T00:38:03.229Z,10.03
2019-01-03T00:41:06.743Z,6.63
2019-01-03T00:43:54.001Z,9.07
2019-01-03T00:46:48.488Z,10.23
2019-01-03T00:49:31.106Z,13.73
2019-01-03T00:52:19.528Z,10.77
2019-01-03T00:55:14.065Z,11.77
2019-01-03T00:58:20.913Z,9.63
2019-01-03T01:01:15.109Z,13.83
2019-01-03T01:04:02.325Z,13.83
2019-01-03T01:06:56.648Z,13.73
2019-01-03T01:09:43.695Z,16.83
2019-01-03T01:12:31.023Z,14.27
2019-01-03T01:15:15.001Z,10.43
2019-01-03T01:18:15.743Z,10.47
2019-01-03T01:21:16.187Z,10.33
2019-01-03T01:24:16.657Z,18.00
2019-01-03T01:27:05.099Z,13.60
2019-01-03T01:30:11.904Z,11.60
2019-01-03T01:33:00.307Z,16.23
2019-01-03T01:35:39.938Z,12.23
2019-01-03T01:38:29.219Z,15.30
2019-01-03T01:41:17.629Z,12.67
2019-01-03T01:44:00.555Z,14.93
2019-01-03T01:46:59.551Z,9.70
2019-01-03T01:50:03.206Z,10.90
2019-01-03T01:52:54.876Z,13.13
2019-01-03T01:55:38.884Z,10.17
2019-01-03T01:58:26.026Z,9.20
2019-01-03T02:01:05.516Z,11.23
2019-01-03T02:03:59.721Z,11.33
2019-01-03T02:06:47.046Z,13.10
2019-01-03T02:09:41.304Z,9.17
2019-01-03T02:12:32.509Z,12.87
2019-01-03T02:15:20.899Z,11.43
2019-01-03T02:18:07.932Z,14.33
2019-01-03T02:21:11.479Z,10.07
2019-01-03T02:24:02.913Z,10.67
2019-01-03T02:27:09.424Z,7.97
2019-01-03T02:29:56.685Z,12.87
2019-01-03T02:32:47.877Z,11.43
2019-01-03T02:35:45.196Z,19.07
2019-01-03T02:38:51.727Z,16.53
2019-01-03T02:41:45.915Z,15.67
2019-01-03T02:44:47.451Z,10.67
2019-01-03T02:47:38.895Z,9.90
2019-01-03T02:50:21.427Z,10.27
2019-01-03T02:53:27.920Z,11.40
2019-01-03T02:56:18.926Z,9.67
2019-01-03T02:59:05.939Z,11.27
2019-01-03T03:01:53.255Z,12.53
2019-01-03T03:04:44.764Z,10.27
2019-01-03T03:07:39.242Z,9.87
2019-01-03T03:10:27.091Z,13.63
2019-01-03T03:13:24.502Z,7.47
2019-01-03T03:16:28.188Z,12.53
2019-01-03T03:19:21.435Z,15.77
2019-01-03T03:22:08.890Z,13.77
2019-01-03T03:25:06.584Z,14.10
2019-01-03T03:27:53.886Z,11.80
2019-01-03T03:30:57.423Z,14.83
2019-01-03T03:34:03.864Z,12.17
2019-01-03T03:36:51.065Z,10.40
2019-01-03T03:39:39.530Z,13.47
2019-01-03T03:42:27.998Z,10.13
2019-01-03T03:45:14.958Z,15.13
2019-01-03T03:48:04.984Z,10.47
2019-01-03T03:50:49.626Z,20.63
2019-01-03T03:53:53.126Z,17.13
2019-01-03T03:56:40.329Z,13.87
2019-01-03T03:59:37.570Z,16.13
2019-01-03T04:02:35.224Z,13.27
2019-01-03T04:05:22.216Z,12.87
2019-01-03T04:08:09.524Z,14.20
2019-01-03T04:11:08.963Z,14.37
2019-01-03T04:13:50.317Z,14.53
2019-01-03T04:16:51.901Z,9.73
2019-01-03T04:19:38.850Z,13.40
2019-01-03T04:22:45.690Z,20.40
2019-01-03T04:25:32.595Z,11.07
2019-01-03T04:28:30.021Z,16.47
2019-01-03T04:31:26.975Z,18.30
2019-01-03T04:34:24.678Z,13.07
2019-01-03T04:37:17.718Z,15.60
2019-01-03T04:40:04.682Z,13.00
2019-01-03T04:42:56.062Z,10.63
2019-01-03T04:45:43.145Z,15.70
2019-01-03T04:48:30.441Z,15.77
2019-01-03T04:51:31.035Z,15.40
2019-01-03T04:54:18.363Z,18.00
2019-01-03T04:57:10.894Z,14.13
2019-01-03T05:00:02.324Z,11.07
2019-01-03T05:03:09.130Z,7.63
2019-01-03T05:05:57.549Z,12.10
2019-01-03T05:08:41.780Z,12.17
2019-01-03T05:11:42.310Z,13.30
2019-01-03T05:14:34.344Z,13.40
2019-01-03T05:17:21.708Z,17.50
2019-01-03T05:20:08.908Z,15.90
2019-01-03T05:23:09.467Z,18.00
2019-01-03T05:26:06.942Z,13.33
2019-01-03T05:29:07.765Z,17.13
2019-01-03T05:31:55.053Z,14.40
2019-01-03T05:34:55.493Z,20.03
2019-01-03T05:37:42.739Z,13.20
2019-01-03T05:40:30.023Z,14.70
2019-01-03T05:43:15.225Z,13.63
2019-01-03T05:46:01.943Z,16.83
2019-01-03T05:49:08.478Z,16.77
2019-01-03T05:52:05.997Z,14.03
2019-01-03T05:55:12.865Z,13.93
2019-01-03T05:58:00.042Z,11.50
2019-01-03T06:00:54.027Z,12.10
2019-01-03T06:03:41.052Z,14.30
2019-01-03T06:06:29.551Z,10.30
2019-01-03T06:09:26.464Z,13.00
2019-01-03T06:12:13.698Z,15.40
2019-01-03T06:15:03.627Z,17.17
2019-01-03T06:18:01.435Z,14.87
2019-01-03T06:20:48.749Z,10.53
2019-01-03T06:23:41.203Z,11.20
2019-01-03T06:26:28.442Z,17.30
2019-01-03T06:29:26.046Z,10.17
2019-01-03T06:32:13.500Z,7.03
2019-01-03T06:35:00.834Z,10.57
2019-01-03T06:37:46.439Z,10.23
2019-01-03T06:40:33.576Z,13.87
2019-01-03T06:43:30.789Z,9.57
2019-01-03T06:46:22.478Z,10.87
2019-01-03T06:49:15.843Z,12.83
2019-01-03T06:52:13.183Z,14.03
2019-01-03T06:54:58.862Z,10.83
2019-01-03T06:57:56.284Z,12.93
2019-01-03T07:00:53.508Z,12.30
2019-01-03T07:03:40.458Z,10.23
2019-01-03T07:06:31.920Z,12.23
2019-01-03T07:09:19.166Z,15.67
2019-01-03T07:12:07.583Z,12.70
2019-01-03T07:14:56.022Z,12.37
2019-01-03T07:17:45.201Z,13.30
2019-01-03T07:20:32.320Z,14.10
2019-01-03T07:23:19.382Z,9.43
2019-01-03T07:26:07.774Z,12.47
2019-01-03T07:29:14.263Z,11.03
2019-01-03T07:32:02.702Z,9.77
2019-01-03T07:34:59.770Z,7.37
2019-01-03T07:38:05.647Z,10.30
2019-01-03T07:40:54.145Z,12.63
2019-01-03T07:43:57.621Z,12.07
2019-01-03T07:46:45.219Z,15.93
2019-01-03T07:49:32.424Z,10.30
2019-01-03T07:52:35.423Z,7.70
2019-01-03T07:55:22.534Z,8.33
2019-01-03T07:58:16.977Z,13.80
2019-01-03T08:01:08.443Z,12.40
2019-01-03T08:04:02.343Z,7.53
2019-01-03T08:07:08.726Z,7.50
2019-01-03T08:10:05.918Z,8.47
2019-01-03T08:12:52.667Z,9.87
2019-01-03T08:15:39.980Z,14.67
2019-01-03T08:18:34.083Z,12.67
2019-01-03T08:21:31.871Z,10.90
2019-01-03T08:24:26.124Z,10.53
2019-01-03T08:27:32.888Z,11.17
2019-01-03T08:30:27.360Z,9.40
2019-01-03T08:33:29.681Z,9.60
2019-01-03T08:36:23.874Z,10.77
2019-01-03T08:39:10.847Z,8.73
2019-01-03T08:41:59.337Z,17.20
2019-01-03T08:44:48.707Z,8.13
2019-01-03T08:47:37.162Z,10.20
2019-01-03T08:50:24.351Z,6.30
2019-01-03T08:53:11.307Z,7.53
2019-01-03T08:55:59.742Z,7.83
2019-01-03T08:59:03.691Z,8.50
2019-01-03T09:01:54.890Z,8.90
2019-01-03T09:04:45.621Z,7.90
2019-01-03T09:07:32.061Z,6.40
2019-01-03T09:10:19.398Z,6.97
2019-01-03T09:13:06.431Z,6.80
2019-01-03T09:16:00.378Z,7.10
2019-01-03T09:18:45.144Z,10.03
2019-01-03T09:21:33.756Z,9.90
2019-01-03T09:24:34.507Z,8.77
2019-01-03T09:27:26.024Z,8.20
2019-01-03T09:30:17.471Z,7.13
2019-01-03T09:33:15.175Z,7.87
2019-01-03T09:36:01.138Z,8.03
2019-01-03T09:39:00.448Z,7.40
2019-01-03T09:41:47.585Z,10.47
2019-01-03T09:44:42.084Z,7.47
2019-01-03T09:47:11.954Z,7.83
2019-01-03T09:49:41.769Z,7.87
2019-01-03T09:52:11.295Z,10.43
2019-01-03T09:54:40.812Z,9.67
2019-01-03T09:57:10.350Z,6.23
2019-01-03T09:59:39.859Z,8.53
2019-01-03T10:02:09.340Z,8.10
2019-01-03T10:04:39.072Z,10.77
2019-01-03T10:07:08.602Z,7.47
2019-01-03T10:09:38.347Z,5.07
2019-01-03T10:12:07.856Z,11.83
2019-01-03T10:14:37.351Z,5.97
2019-01-03T10:17:06.844Z,6.53
2019-01-03T10:19:36.378Z,5.83
2019-01-03T10:22:05.898Z,5.80
2019-01-03T10:24:35.455Z,10.33
2019-01-03T10:27:04.984Z,6.10
2019-01-03T10:29:34.503Z,10.90
2019-01-03T10:32:04.012Z,10.37
2019-01-03T10:34:33.518Z,7.70
2019-01-03T10:37:03.052Z,6.33
2019-01-03T10:39:32.571Z,6.40
2019-01-03T10:42:02.084Z,8.03
2019-01-03T10:44:31.613Z,5.90
2019-01-03T10:47:01.183Z,5.57
2019-01-03T10:49:30.686Z,9.33
2019-01-03T10:52:00.216Z,6.63
2019-01-03T10:54:29.912Z,4.37
2019-01-03T10:56:59.383Z,3.47
2019-01-03T10:59:28.894Z,5.77
2019-01-03T11:01:58.429Z,5.30
2019-01-03T11:04:27.906Z,5.90
2019-01-03T11:06:57.496Z,9.43
2019-01-03T11:09:27.002Z,5.43
2019-01-03T11:11:56.557Z,9.27
2019-01-03T11:14:25.386Z,10.77
2019-01-03T11:16:54.930Z,6.73
2019-01-03T11:19:26.048Z,9.27
2019-01-03T11:21:55.502Z,5.23
2019-01-03T11:24:25.328Z,5.93
2019-01-03T11:26:54.810Z,9.43
2019-01-03T11:29:24.291Z,5.93
2019-01-03T11:31:53.174Z,8.37
2019-01-03T11:34:22.680Z,6.83
2019-01-03T11:36:52.168Z,7.00
2019-01-03T11:39:21.670Z,7.00
2019-01-03T11:41:51.154Z,11.40
2019-01-03T11:44:20.921Z,4.03
2019-01-03T11:46:50.466Z,11.47
2019-01-03T11:49:19.986Z,8.47
2019-01-03T11:51:49.500Z,6.83
2019-01-03T11:54:19.230Z,9.97
2019-01-03T11:56:48.698Z,5.27
2019-01-03T11:59:18.212Z,7.77
2019-01-03T12:01:47.774Z,7.53
2019-01-03T12:04:17.275Z,11.70
2019-01-03T12:06:46.786Z,5.33
2019-01-03T12:09:16.305Z,5.53
2019-01-03T12:11:45.818Z,8.50
2019-01-03T12:14:15.350Z,10.50
2019-01-03T12:16:44.851Z,6.03
2019-01-03T12:19:14.372Z,7.83
2019-01-03T12:21:43.866Z,3.70
2019-01-03T12:24:13.436Z,2.53
2019-01-03T12:26:42.959Z,3.43
2019-01-03T12:29:12.467Z,4.33
2019-01-03T12:31:41.326Z,4.23
2019-01-03T12:34:10.847Z,4.73
2019-01-03T12:36:40.346Z,5.13
2019-01-03T12:39:09.849Z,5.60
2019-01-03T12:41:39.598Z,12.00
2019-01-03T12:44:09.114Z,4.13
2019-01-03T12:46:38.633Z,6.53
2019-01-03T12:49:08.188Z,6.53
2019-01-03T12:51:37.687Z,5.43
2019-01-03T12:54:07.191Z,6.07
2019-01-03T12:56:36.692Z,5.83
2019-01-03T12:59:06.190Z,6.80
2019-01-03T13:01:35.733Z,11.63
2019-01-03T13:04:05.301Z,5.87
2019-01-03T13:06:34.839Z,6.97
2019-01-03T13:09:07.722Z,8.70
2019-01-03T13:11:37.233Z,6.80
2019-01-03T13:14:06.758Z,4.27
2019-01-03T13:16:36.272Z,10.23
2019-01-03T13:19:06.064Z,8.83
2019-01-03T13:21:35.554Z,8.77
2019-01-03T13:24:05.622Z,5.67
2019-01-03T13:26:35.142Z,5.67
2019-01-03T13:29:04.654Z,4.73
2019-01-03T13:31:34.251Z,5.03
2019-01-03T13:34:03.791Z,8.20
2019-01-03T13:36:33.303Z,7.07
2019-01-03T13:39:02.913Z,8.17
2019-01-03T13:41:32.423Z,6.13
2019-01-03T13:44:01.890Z,7.20
2019-01-03T13:46:31.414Z,5.57
2019-01-03T13:49:00.914Z,8.00
2019-01-03T13:51:30.443Z,7.77
2019-01-03T13:53:59.928Z,4.30
2019-01-03T13:56:29.501Z,6.33
2019-01-03T13:58:59.027Z,8.30
2019-01-03T14:01:28.535Z,7.67
2019-01-03T14:03:58.023Z,5.63
2019-01-03T14:06:27.583Z,6.57
2019-01-03T14:08:57.039Z,7.47
2019-01-03T14:11:26.573Z,5.43
2019-01-03T14:13:56.068Z,5.67
2019-01-03T14:16:25.587Z,6.97
2019-01-03T14:18:55.072Z,5.40
2019-01-03T14:21:24.558Z,4.40
2019-01-03T14:23:54.081Z,10.60
2019-01-03T14:26:23.574Z,3.37
2019-01-03T14:28:53.046Z,4.57
2019-01-03T14:31:22.592Z,9.47
2019-01-03T14:33:52.123Z,7.83
2019-01-03T14:36:21.663Z,5.10
2019-01-03T14:38:51.626Z,6.47
2019-01-03T14:41:21.162Z,7.17
2019-01-03T14:43:50.666Z,7.20
2019-01-03T14:46:20.210Z,4.40
2019-01-03T14:48:49.742Z,5.27
2019-01-03T14:51:19.213Z,8.77
2019-01-03T14:53:48.722Z,10.83
2019-01-03T14:56:18.264Z,7.93
2019-01-03T14:58:47.759Z,7.77
2019-01-03T15:01:17.261Z,5.67
2019-01-03T15:03:46.798Z,8.40
2019-01-03T15:06:16.319Z,6.23
2019-01-03T15:08:45.845Z,7.87
2019-01-03T15:11:14.708Z,5.73
2019-01-03T15:13:44.207Z,6.17
2019-01-03T15:16:13.708Z,6.23
2019-01-03T15:18:43.266Z,9.50
2019-01-03T15:21:12.782Z,5.97
2019-01-03T15:23:41.777Z,7.93
2019-01-03T15:26:11.534Z,9.60
2019-01-03T15:28:41.033Z,7.73
2019-01-03T15:31:10.512Z,5.97
2019-01-03T15:33:40.028Z,6.90
2019-01-03T15:36:09.543Z,9.07
2019-01-03T15:38:39.043Z,11.07
2019-01-03T15:41:08.563Z,8.13
2019-01-03T15:43:38.074Z,7.93
2019-01-03T15:46:07.560Z,6.53
2019-01-03T15:48:37.061Z,9.60
2019-01-03T15:51:06.601Z,7.23
2019-01-03T15:53:36.118Z,8.03
2019-01-03T15:56:05.761Z,6.93
2019-01-03T15:58:35.240Z,9.93
2019-01-03T16:01:04.746Z,7.87
2019-01-03T16:03:34.249Z,3.90
2019-01-03T16:06:03.792Z,6.63
2019-01-03T16:08:33.298Z,12.07
2019-01-03T16:11:02.834Z,7.37
2019-01-03T16:13:32.318Z,5.60
2019-01-03T16:16:01.829Z,9.40
2019-01-03T16:18:31.346Z,8.30
2019-01-03T16:21:00.856Z,10.17
2019-01-03T16:23:30.463Z,9.00
2019-01-03T16:25:59.974Z,7.20
2019-01-03T16:28:29.491Z,9.67
2019-01-03T16:30:59.017Z,9.87
2019-01-03T16:33:28.497Z,9.97
2019-01-03T16:35:58.021Z,6.87
2019-01-03T16:38:27.520Z,12.83
2019-01-03T16:40:57.014Z,11.70
2019-01-03T16:43:26.511Z,6.23
2019-01-03T16:45:55.999Z,8.70
2019-01-03T16:48:25.510Z,13.50
2019-01-03T16:50:55.035Z,8.30
2019-01-03T16:53:24.525Z,12.20
2019-01-03T16:55:54.015Z,8.37
2019-01-03T16:58:23.526Z,10.27
2019-01-03T17:00:53.006Z,10.80
2019-01-03T17:03:22.507Z,10.70
2019-01-03T17:05:51.982Z,11.77
2019-01-03T17:08:20.870Z,9.27
2019-01-03T17:10:50.415Z,10.97
2019-01-03T17:13:19.908Z,7.87
2019-01-03T17:15:49.399Z,11.93
2019-01-03T17:18:18.950Z,9.03
2019-01-03T17:20:48.431Z,10.60
2019-01-03T17:23:17.973Z,17.97
2019-01-03T17:25:47.512Z,12.43
2019-01-03T17:28:17.010Z,13.90
2019-01-03T17:30:46.511Z,9.10
2019-01-03T17:33:16.138Z,8.43
2019-01-03T17:35:45.758Z,9.73
2019-01-03T17:38:15.281Z,12.27
2019-01-03T17:40:44.822Z,11.27
2019-01-03T17:43:14.318Z,17.23
2019-01-03T17:45:43.798Z,18.57
2019-01-03T17:48:13.318Z,9.20
2019-01-03T17:50:42.869Z,11.17
2019-01-03T17:53:12.370Z,9.77
2019-01-03T17:55:41.918Z,13.83
2019-01-03T17:58:11.433Z,13.60
2019-01-03T18:00:42.805Z,12.47
2019-01-03T18:03:12.343Z,8.83
2019-01-03T18:05:41.851Z,12.20
2019-01-03T18:08:11.408Z,10.33
2019-01-03T18:10:40.913Z,7.50
2019-01-03T18:13:10.434Z,10.87
2019-01-03T18:15:39.967Z,15.77
2019-01-03T18:18:09.467Z,13.77
2019-01-03T18:20:38.960Z,12.23
2019-01-03T18:23:08.436Z,19.97
2019-01-03T18:25:37.967Z,11.00
2019-01-03T18:28:07.499Z,14.57
2019-01-03T18:30:37.008Z,12.70
2019-01-03T18:33:06.530Z,21.40
2019-01-03T18:35:36.057Z,15.60
2019-01-03T18:38:05.595Z,13.13
2019-01-03T18:40:35.065Z,14.30
2019-01-03T18:43:04.597Z,12.03
2019-01-03T18:45:34.164Z,7.93
2019-01-03T18:48:03.029Z,11.67
2019-01-03T18:50:32.540Z,12.47
2019-01-03T18:53:02.092Z,16.63
2019-01-03T18:55:31.607Z,15.83
2019-01-03T18:58:01.102Z,10.57
2019-01-03T19:00:30.627Z,13.23
2019-01-03T19:03:00.148Z,17.60
2019-01-03T19:05:29.631Z,13.30
2019-01-03T19:07:59.136Z,18.50
2019-01-03T19:10:28.667Z,11.73
2019-01-03T19:12:58.200Z,16.83
2019-01-03T19:15:27.707Z,16.13
2019-01-03T19:17:57.252Z,18.80
2019-01-03T19:20:26.821Z,13.30
2019-01-03T19:22:56.320Z,18.50
2019-01-03T19:25:25.859Z,14.87
2019-01-03T19:27:55.427Z,27.20
2019-01-03T19:30:24.924Z,24.37
2019-01-03T19:32:54.502Z,17.40
2019-01-03T19:35:24.020Z,13.17
2019-01-03T19:37:53.512Z,15.07
2019-01-03T19:40:23.023Z,14.90
2019-01-03T19:42:52.561Z,20.63
2019-01-03T19:45:22.087Z,17.73
2019-01-03T19:47:51.574Z,20.20
2019-01-03T19:50:21.486Z,25.90
2019-01-03T19:52:50.994Z,16.50
2019-01-03T19:55:20.521Z,17.33
2019-01-03T19:57:50.070Z,18.63
2019-01-03T20:00:19.609Z,16.13
2019-01-03T20:02:49.094Z,17.53
2019-01-03T20:05:18.694Z,21.97
2019-01-03T20:07:48.946Z,26.20
2019-01-03T20:10:18.441Z,19.47
2019-01-03T20:12:47.927Z,16.73
2019-01-03T20:15:17.414Z,15.30
2019-01-03T20:17:46.928Z,16.30
2019-01-03T20:20:16.410Z,15.87
2019-01-03T20:22:45.931Z,13.77
2019-01-03T20:25:15.470Z,17.10
2019-01-03T20:27:44.952Z,19.20
2019-01-03T20:30:14.481Z,19.10
2019-01-03T20:32:43.990Z,15.20
2019-01-03T20:35:13.483Z,17.70
2019-01-03T20:37:43.002Z,15.00
2019-01-03T20:40:12.521Z,14.23
2019-01-03T20:42:42.030Z,16.07
2019-01-03T20:45:12.458Z,14.33
2019-01-03T20:47:42.096Z,14.87
2019-01-03T20:50:11.877Z,15.70
2019-01-03T20:52:41.361Z,9.57
2019-01-03T20:55:10.855Z,11.03
2019-01-03T20:57:40.409Z,12.67
2019-01-03T21:00:12.538Z,16.70
2019-01-03T21:02:42.052Z,13.37
2019-01-03T21:05:11.529Z,9.17
2019-01-03T21:07:41.067Z,8.13
2019-01-03T21:10:12.173Z,15.00
2019-01-03T21:12:41.803Z,15.87
2019-01-03T21:15:14.112Z,10.93
2019-01-03T21:17:43.607Z,12.43
2019-01-03T21:20:13.742Z,13.83
2019-01-03T21:22:43.398Z,15.60
2019-01-03T21:25:13.725Z,6.80
2019-01-03T21:27:43.723Z,10.87
2019-01-03T21:30:18.535Z,8.17
2019-01-03T21:32:48.168Z,11.33
2019-01-03T21:35:17.647Z,7.07
2019-01-03T21:37:46.521Z,8.13
2019-01-03T21:40:16.050Z,7.60
2019-01-03T21:42:45.591Z,6.43
2019-01-03T21:45:15.198Z,10.63
2019-01-03T21:47:44.843Z,7.00
2019-01-03T21:50:14.449Z,6.63
2019-01-03T21:52:43.980Z,7.00
2019-01-03T21:55:13.514Z,6.53
2019-01-03T21:57:43.028Z,10.10
2019-01-03T22:00:13.680Z,10.50
2019-01-03T22:02:43.167Z,7.33
2019-01-03T22:05:12.654Z,6.40
2019-01-03T22:07:42.155Z,5.80
2019-01-03T22:10:12.121Z,8.50
2019-01-03T22:12:41.624Z,12.83
2019-01-03T22:15:11.671Z,17.73
2019-01-03T22:17:43.249Z,11.87
2019-01-03T22:20:12.743Z,13.07
2019-01-03T22:22:42.291Z,8.87
2019-01-03T22:25:11.822Z,7.83
2019-01-03T22:27:41.341Z,8.57
2019-01-03T22:30:11.850Z,11.63
2019-01-03T22:32:41.752Z,22.60
2019-01-03T22:35:11.262Z,12.50
2019-01-03T22:37:40.738Z,11.63
2019-01-03T22:40:10.579Z,7.87
2019-01-03T22:42:40.031Z,13.50
2019-01-03T22:45:10.806Z,11.23
2019-01-03T22:47:40.303Z,12.43
2019-01-03T22:50:10.571Z,13.37
2019-01-03T22:52:40.106Z,14.93
2019-01-03T22:55:09.723Z,12.00
2019-01-03T22:57:39.243Z,11.80
2019-01-03T23:00:28.309Z,11.93
2019-01-03T23:02:57.807Z,10.00
2019-01-03T23:05:27.309Z,13.17
2019-01-03T23:07:57.465Z,11.27
2019-01-03T23:10:26.992Z,10.93
2019-01-03T23:12:56.558Z,14.60
2019-01-03T23:15:26.139Z,9.90
2019-01-03T23:17:55.654Z,10.13
2019-01-03T23:20:25.156Z,10.03
2019-01-03T23:22:54.745Z,11.50
2019-01-03T23:25:24.232Z,13.47
2019-01-03T23:27:53.760Z,12.13
2019-01-03T23:30:23.227Z,10.37
2019-01-03T23:32:52.826Z,10.80
2019-01-03T23:35:22.459Z,11.93
2019-01-03T23:37:51.966Z,12.63
2019-01-03T23:40:21.451Z,13.17
2019-01-03T23:42:50.977Z,11.53
2019-01-03T23:45:30.160Z,10.23
2019-01-03T23:48:01.013Z,12.03
2019-01-03T23:50:36.873Z,11.80
2019-01-03T23:53:06.687Z,10.27
2019-01-03T23:55:44.564Z,15.20
2019-01-03T23:58:14.076Z,10.97
